Sligo Airport - TAF
(Terminal Area Forecast)

Issued at 04:36 UTC on Thu. 20-Sep-18

--- METARS(SA) ---

METAR EISG(SLIGO) 200430Z AUTO 16007KT 130V200 9999 SCT032 09/05

Q1005 =

--- TAFS() ---

TAF EISG(SLIGO) 200200Z 2003/2012 21010KT 9999 FEW020 SCT030 BECMG

2006/2009 19007KT =

--- SIGMETS(WS) ---

IE - No VALID SIGMETS/Warnings FOR THIS AREA

--- SIGMETS Volcanic(WV) ---

IE - No VALID SIGMETS/Warnings FOR THIS AREA

--- SIGMETS(WS) ---

EGPX SIGMET 01 VALID 200100/200500 EGRR- EGPX

SCOTTISH FIR SEV TURB FCST SE OF LINE N5850 W01000 - N6039

E00000 SFC/FL060 STNR NC=

EGPX SIGMET 02 VALID 200100/200500 EGRR- EGPX

SCOTTISH FIR SEV MTW FCST WI N5500 W00530 - N5622 W00419 - N5805

W00103 - N5500 E00020 - N5500 W00530 FL030/250 STNR NC=

EGTT SIGMET 01 VALID 200100/200500 EGRR- EGTT

LONDON FIR SEV MTW FCST WI N5500 E00020 - N5416 E00049 - N5314

W00250 - N5500 W00530 - N5500 E00020 FL030/250 MOV N 10KT WKN=

EGTT SIGMET 02 VALID 200100/200500 EGRR- EGTT

LONDON FIR SEV TURB FCST WI N5500 E00000 - N5418 W00223 - N5500

W00530 - N5500 E00000 SFC/FL060 MOV N 05KT WKN=

Sligo Airport - METARs

Latest METARs for Sligo and Donegal Airports - updated every 30 mins